Airport View

Enter AWOS ICAO identifier for current METAR.

ex. KFNL

KCEY 171155Z AUTO 09004KT 2 1/2SM CLR M02/M02 A3008 RMK AO1

17 Nov 2019 12:00

Frequency: 119.975

Phone: 270-489-2424

Other Area AWOS: KM25 - KPHT - KPAH - KUCY

TAF KPAH 170521Z 1706/1806 VRB03KT 5SM BR FEW250 FM171300 00000KT P6SM SCT250 FM171700 VRB03KT P6SM OVC250 FM180100 VRB03KT P6SM OVC100 FM180500 00000KT P6SM BKN050